Terminal Aerodrome Forecast
Issued by NWS

Home | Current Version | Previous Version | Text Only | Print | Product List | Glossary On
Versions: 1 2 3 4 5 6 7 8 9 10 11 12 13 14 15
000
FTUS42 KTAE 222200 AAA
TAFABY
TAF AMD
KABY 222246Z 2223/2318 VRB04KT P6SM -RA SCT050 OVC090
      TEMPO 2223/2224 5SM RA SCT030 BKN050
     FM230100 35005KT P6SM SCT200
     FM230900 05007KT P6SM BKN015
     FM231500 07008KT P6SM SCT020=

USA.gov is the U.S. government's official web portal to all federal, state and local government web resources and services.